sensor_id;sensor_type;location;lat;lon;timestamp;temperature;humidity
6865;DHT22;3471;49.678;8.388;2023-04-25T00:00:45;10.50;99.90
6865;DHT22;3471;49.678;8.388;2023-04-25T00:03:11;10.50;99.90
6865;DHT22;3471;49.678;8.388;2023-04-25T00:05:36;10.50;99.90
6865;DHT22;3471;49.678;8.388;2023-04-25T00:08:03;10.60;99.90
6865;DHT22;3471;49.678;8.388;2023-04-25T00:10:29;10.60;99.90
6865;DHT22;3471;49.678;8.388;2023-04-25T00:12:54;10.60;99.90
6865;DHT22;3471;49.678;8.388;2023-04-25T00:15:20;10.70;99.90
6865;DHT22;3471;49.678;8.388;2023-04-25T00:17:46;10.70;99.90
6865;DHT22;3471;49.678;8.388;2023-04-25T00:20:12;10.70;99.90
6865;DHT22;3471;49.678;8.388;2023-04-25T00:22:37;10.70;99.90
6865;DHT22;3471;49.678;8.388;2023-04-25T00:25:06;10.70;99.90
6865;DHT22;3471;49.678;8.388;2023-04-25T00:27:32;10.70;99.90
6865;DHT22;3471;49.678;8.388;2023-04-25T00:29:58;10.70;99.90
6865;DHT22;3471;49.678;8.388;2023-04-25T00:32:23;10.70;99.90
6865;DHT22;3471;49.678;8.388;2023-04-25T00:34:49;10.70;99.90
6865;DHT22;3471;49.678;8.388;2023-04-25T00:37:15;10.70;99.90
6865;DHT22;3471;49.678;8.388;2023-04-25T00:39:41;10.70;99.90
6865;DHT22;3471;49.678;8.388;2023-04-25T00:42:06;10.70;99.90
6865;DHT22;3471;49.678;8.388;2023-04-25T00:44:34;10.70;99.90
6865;DHT22;3471;49.678;8.388;2023-04-25T00:47:01;10.70;99.90
6865;DHT22;3471;49.678;8.388;2023-04-25T00:49:27;10.70;99.90
6865;DHT22;3471;49.678;8.388;2023-04-25T00:51:53;10.80;99.90
6865;DHT22;3471;49.678;8.388;2023-04-25T00:54:18;10.80;99.90
6865;DHT22;3471;49.678;8.388;2023-04-25T00:56:45;10.80;99.90
6865;DHT22;3471;49.678;8.388;2023-04-25T00:59:10;10.80;99.90
6865;DHT22;3471;49.678;8.388;2023-04-25T01:01:37;10.80;99.90
6865;DHT22;3471;49.678;8.388;2023-04-25T01:04:04;10.80;99.90
6865;DHT22;3471;49.678;8.388;2023-04-25T01:06:30;10.80;99.90
6865;DHT22;3471;49.678;8.388;2023-04-25T01:08:56;10.80;99.90
6865;DHT22;3471;49.678;8.388;2023-04-25T01:11:22;10.80;99.90
6865;DHT22;3471;49.678;8.388;2023-04-25T01:13:47;10.80;99.90
6865;DHT22;3471;49.678;8.388;2023-04-25T01:16:13;10.80;99.90
6865;DHT22;3471;49.678;8.388;2023-04-25T01:18:39;10.80;99.90
6865;DHT22;3471;49.678;8.388;2023-04-25T01:21:10;10.80;99.90
6865;DHT22;3471;49.678;8.388;2023-04-25T01:23:37;10.90;99.90
6865;DHT22;3471;49.678;8.388;2023-04-25T01:26:03;10.90;99.90
6865;DHT22;3471;49.678;8.388;2023-04-25T01:28:29;10.90;99.90
6865;DHT22;3471;49.678;8.388;2023-04-25T01:30:56;10.90;99.90
6865;DHT22;3471;49.678;8.388;2023-04-25T01:33:22;10.90;99.90
6865;DHT22;3471;49.678;8.388;2023-04-25T01:35:47;10.90;99.90
6865;DHT22;3471;49.678;8.388;2023-04-25T01:38:13;10.90;99.90
6865;DHT22;3471;49.678;8.388;2023-04-25T01:40:40;10.90;99.90
6865;DHT22;3471;49.678;8.388;2023-04-25T01:43:07;10.90;99.90
6865;DHT22;3471;49.678;8.388;2023-04-25T01:45:37;10.90;99.90
6865;DHT22;3471;49.678;8.388;2023-04-25T01:48:04;10.90;99.90
6865;DHT22;3471;49.678;8.388;2023-04-25T01:50:30;10.90;99.90
6865;DHT22;3471;49.678;8.388;2023-04-25T01:52:56;10.90;99.90
6865;DHT22;3471;49.678;8.388;2023-04-25T01:55:22;10.80;99.90
6865;DHT22;3471;49.678;8.388;2023-04-25T01:57:47;10.80;99.90
6865;DHT22;3471;49.678;8.388;2023-04-25T02:00:13;10.80;99.90
6865;DHT22;3471;49.678;8.388;2023-04-25T02:02:39;10.80;99.90
6865;DHT22;3471;49.678;8.388;2023-04-25T02:05:05;10.90;99.90
6865;DHT22;3471;49.678;8.388;2023-04-25T02:07:32;10.90;99.90
6865;DHT22;3471;49.678;8.388;2023-04-25T02:09:57;10.90;99.90
6865;DHT22;3471;49.678;8.388;2023-04-25T02:12:23;10.90;99.90
6865;DHT22;3471;49.678;8.388;2023-04-25T02:14:49;10.90;99.90
6865;DHT22;3471;49.678;8.388;2023-04-25T02:17:15;10.90;99.90
6865;DHT22;3471;49.678;8.388;2023-04-25T02:19:41;10.90;99.90
6865;DHT22;3471;49.678;8.388;2023-04-25T02:22:07;10.90;99.90
6865;DHT22;3471;49.678;8.388;2023-04-25T02:24:32;10.90;99.90
6865;DHT22;3471;49.678;8.388;2023-04-25T02:26:59;10.90;99.90
6865;DHT22;3471;49.678;8.388;2023-04-25T02:29:24;10.90;99.90
6865;DHT22;3471;49.678;8.388;2023-04-25T02:31:50;10.90;99.90
6865;DHT22;3471;49.678;8.388;2023-04-25T02:34:15;10.90;99.90
6865;DHT22;3471;49.678;8.388;2023-04-25T02:36:41;10.90;99.90
6865;DHT22;3471;49.678;8.388;2023-04-25T02:39:07;10.90;99.90
6865;DHT22;3471;49.678;8.388;2023-04-25T02:41:32;10.90;99.90
6865;DHT22;3471;49.678;8.388;2023-04-25T02:43:58;10.90;99.90
6865;DHT22;3471;49.678;8.388;2023-04-25T02:46:23;11.00;99.90
6865;DHT22;3471;49.678;8.388;2023-04-25T02:48:49;11.00;99.90
6865;DHT22;3471;49.678;8.388;2023-04-25T02:51:14;11.00;99.90
6865;DHT22;3471;49.678;8.388;2023-04-25T02:53:41;11.00;99.90
6865;DHT22;3471;49.678;8.388;2023-04-25T02:56:07;11.00;99.90
6865;DHT22;3471;49.678;8.388;2023-04-25T02:58:33;11.00;99.90
6865;DHT22;3471;49.678;8.388;2023-04-25T03:00:58;11.00;99.90
6865;DHT22;3471;49.678;8.388;2023-04-25T03:03:24;11.00;99.90
6865;DHT22;3471;49.678;8.388;2023-04-25T03:05:50;11.00;99.90
6865;DHT22;3471;49.678;8.388;2023-04-25T03:08:17;10.90;99.90
6865;DHT22;3471;49.678;8.388;2023-04-25T03:10:44;10.90;99.90
6865;DHT22;3471;49.678;8.388;2023-04-25T03:13:10;10.90;99.90
6865;DHT22;3471;49.678;8.388;2023-04-25T03:15:36;10.90;99.90
6865;DHT22;3471;49.678;8.388;2023-04-25T03:18:02;10.90;99.90
6865;DHT22;3471;49.678;8.388;2023-04-25T03:20:28;10.90;99.90
6865;DHT22;3471;49.678;8.388;2023-04-25T03:22:53;10.90;99.90
6865;DHT22;3471;49.678;8.388;2023-04-25T03:25:19;10.90;99.90
6865;DHT22;3471;49.678;8.388;2023-04-25T03:27:45;10.80;99.90
6865;DHT22;3471;49.678;8.388;2023-04-25T03:30:10;10.80;99.90
6865;DHT22;3471;49.678;8.388;2023-04-25T03:32:36;10.80;99.90
6865;DHT22;3471;49.678;8.388;2023-04-25T03:35:02;10.80;99.90
6865;DHT22;3471;49.678;8.388;2023-04-25T03:37:28;10.70;99.90
6865;DHT22;3471;49.678;8.388;2023-04-25T03:39:54;10.70;99.90
6865;DHT22;3471;49.678;8.388;2023-04-25T03:42:19;10.70;99.90
6865;DHT22;3471;49.678;8.388;2023-04-25T03:44:48;10.70;99.90
6865;DHT22;3471;49.678;8.388;2023-04-25T03:47:14;10.70;99.90
6865;DHT22;3471;49.678;8.388;2023-04-25T03:49:39;10.70;99.90
6865;DHT22;3471;49.678;8.388;2023-04-25T03:52:05;10.70;99.90
6865;DHT22;3471;49.678;8.388;2023-04-25T03:54:30;10.70;99.90
6865;DHT22;3471;49.678;8.388;2023-04-25T03:56:56;10.70;99.90
6865;DHT22;3471;49.678;8.388;2023-04-25T03:59:22;10.60;99.90
6865;DHT22;3471;49.678;8.388;2023-04-25T04:01:47;10.70;99.90
6865;DHT22;3471;49.678;8.388;2023-04-25T04:04:13;10.70;99.90
6865;DHT22;3471;49.678;8.388;2023-04-25T04:06:38;10.70;99.90
6865;DHT22;3471;49.678;8.388;2023-04-25T04:09:04;10.70;99.90
6865;DHT22;3471;49.678;8.388;2023-04-25T04:11:30;10.70;99.90
6865;DHT22;3471;49.678;8.388;2023-04-25T04:13:57;10.70;99.90
6865;DHT22;3471;49.678;8.388;2023-04-25T04:16:23;10.70;99.90
6865;DHT22;3471;49.678;8.388;2023-04-25T04:18:48;10.70;99.90
6865;DHT22;3471;49.678;8.388;2023-04-25T04:21:14;10.70;99.90
6865;DHT22;3471;49.678;8.388;2023-04-25T04:23:40;10.70;99.90
6865;DHT22;3471;49.678;8.388;2023-04-25T04:26:06;10.70;99.90
6865;DHT22;3471;49.678;8.388;2023-04-25T04:28:33;10.70;99.90
6865;DHT22;3471;49.678;8.388;2023-04-25T04:31:01;10.70;99.90
6865;DHT22;3471;49.678;8.388;2023-04-25T04:33:28;10.70;99.90
6865;DHT22;3471;49.678;8.388;2023-04-25T04:35:53;10.70;99.90
6865;DHT22;3471;49.678;8.388;2023-04-25T04:38:20;10.70;99.90
6865;DHT22;3471;49.678;8.388;2023-04-25T04:40:47;10.70;99.90
6865;DHT22;3471;49.678;8.388;2023-04-25T04:43:13;10.70;99.90
6865;DHT22;3471;49.678;8.388;2023-04-25T04:45:42;10.70;99.90
6865;DHT22;3471;49.678;8.388;2023-04-25T04:48:08;10.70;99.90
6865;DHT22;3471;49.678;8.388;2023-04-25T04:50:34;10.80;99.90
6865;DHT22;3471;49.678;8.388;2023-04-25T04:53:01;10.80;99.90
6865;DHT22;3471;49.678;8.388;2023-04-25T04:55:27;10.80;99.90
6865;DHT22;3471;49.678;8.388;2023-04-25T04:57:52;10.80;99.90
6865;DHT22;3471;49.678;8.388;2023-04-25T05:00:18;10.90;99.90
6865;DHT22;3471;49.678;8.388;2023-04-25T05:02:44;10.90;99.90
6865;DHT22;3471;49.678;8.388;2023-04-25T05:05:09;10.90;99.90
6865;DHT22;3471;49.678;8.388;2023-04-25T05:07:35;11.00;99.90
6865;DHT22;3471;49.678;8.388;2023-04-25T05:10:01;11.00;99.90
6865;DHT22;3471;49.678;8.388;2023-04-25T05:12:27;11.00;99.90
6865;DHT22;3471;49.678;8.388;2023-04-25T05:14:52;11.10;99.90
6865;DHT22;3471;49.678;8.388;2023-04-25T05:17:18;11.10;99.90
6865;DHT22;3471;49.678;8.388;2023-04-25T05:19:43;11.10;99.90
6865;DHT22;3471;49.678;8.388;2023-04-25T05:22:09;11.20;99.90
6865;DHT22;3471;49.678;8.388;2023-04-25T05:24:35;11.10;99.90
6865;DHT22;3471;49.678;8.388;2023-04-25T05:27:00;11.20;99.90
6865;DHT22;3471;49.678;8.388;2023-04-25T05:29:26;11.20;99.90
6865;DHT22;3471;49.678;8.388;2023-04-25T05:31:51;11.10;99.90
6865;DHT22;3471;49.678;8.388;2023-04-25T05:34:17;11.10;99.90
6865;DHT22;3471;49.678;8.388;2023-04-25T05:36:42;11.10;99.90
6865;DHT22;3471;49.678;8.388;2023-04-25T05:39:08;11.10;99.90
6865;DHT22;3471;49.678;8.388;2023-04-25T05:41:34;11.10;99.90
6865;DHT22;3471;49.678;8.388;2023-04-25T05:43:59;11.00;99.90
6865;DHT22;3471;49.678;8.388;2023-04-25T05:46:25;11.00;99.90
6865;DHT22;3471;49.678;8.388;2023-04-25T05:48:51;11.00;99.90
6865;DHT22;3471;49.678;8.388;2023-04-25T05:51:16;11.00;99.90
6865;DHT22;3471;49.678;8.388;2023-04-25T05:53:43;11.00;99.90
6865;DHT22;3471;49.678;8.388;2023-04-25T05:56:09;10.90;99.90
6865;DHT22;3471;49.678;8.388;2023-04-25T05:58:35;10.90;99.90
6865;DHT22;3471;49.678;8.388;2023-04-25T06:01:01;10.80;99.90
6865;DHT22;3471;49.678;8.388;2023-04-25T06:03:27;10.80;99.90
6865;DHT22;3471;49.678;8.388;2023-04-25T06:05:53;10.70;99.90
6865;DHT22;3471;49.678;8.388;2023-04-25T06:08:19;10.70;99.90
6865;DHT22;3471;49.678;8.388;2023-04-25T06:10:44;10.70;99.90
6865;DHT22;3471;49.678;8.388;2023-04-25T06:13:10;10.70;99.90
6865;DHT22;3471;49.678;8.388;2023-04-25T06:15:36;10.70;99.90
6865;DHT22;3471;49.678;8.388;2023-04-25T06:18:01;10.60;99.90
6865;DHT22;3471;49.678;8.388;2023-04-25T06:20:27;10.60;99.90
6865;DHT22;3471;49.678;8.388;2023-04-25T06:22:53;10.60;99.90
6865;DHT22;3471;49.678;8.388;2023-04-25T06:25:19;10.50;99.90
6865;DHT22;3471;49.678;8.388;2023-04-25T06:27:44;10.60;99.90
6865;DHT22;3471;49.678;8.388;2023-04-25T06:30:10;10.60;99.90
6865;DHT22;3471;49.678;8.388;2023-04-25T06:32:37;10.60;99.90
6865;DHT22;3471;49.678;8.388;2023-04-25T06:35:03;10.70;99.90
6865;DHT22;3471;49.678;8.388;2023-04-25T06:37:29;10.70;99.90
6865;DHT22;3471;49.678;8.388;2023-04-25T06:39:55;10.80;99.90
6865;DHT22;3471;49.678;8.388;2023-04-25T06:42:21;10.80;99.90
6865;DHT22;3471;49.678;8.388;2023-04-25T06:44:46;10.80;99.90
6865;DHT22;3471;49.678;8.388;2023-04-25T06:47:13;10.80;99.90
6865;DHT22;3471;49.678;8.388;2023-04-25T06:49:38;10.80;99.90
6865;DHT22;3471;49.678;8.388;2023-04-25T06:52:04;10.80;99.90
6865;DHT22;3471;49.678;8.388;2023-04-25T06:54:29;10.80;99.90
6865;DHT22;3471;49.678;8.388;2023-04-25T06:56:56;10.80;99.90
6865;DHT22;3471;49.678;8.388;2023-04-25T06:59:22;10.80;99.90
6865;DHT22;3471;49.678;8.388;2023-04-25T07:01:47;10.80;99.90
6865;DHT22;3471;49.678;8.388;2023-04-25T07:04:13;10.80;99.90
6865;DHT22;3471;49.678;8.388;2023-04-25T07:06:39;10.80;99.90
6865;DHT22;3471;49.678;8.388;2023-04-25T07:09:08;10.80;99.90
6865;DHT22;3471;49.678;8.388;2023-04-25T07:11:35;10.90;99.90
6865;DHT22;3471;49.678;8.388;2023-04-25T07:14:01;10.90;99.90
6865;DHT22;3471;49.678;8.388;2023-04-25T07:16:27;10.90;99.90
6865;DHT22;3471;49.678;8.388;2023-04-25T07:18:52;11.00;99.90
6865;DHT22;3471;49.678;8.388;2023-04-25T07:21:18;11.00;99.90
6865;DHT22;3471;49.678;8.388;2023-04-25T07:23:43;11.00;99.90
6865;DHT22;3471;49.678;8.388;2023-04-25T07:26:09;11.10;99.90
6865;DHT22;3471;49.678;8.388;2023-04-25T07:28:35;11.10;99.90
6865;DHT22;3471;49.678;8.388;2023-04-25T07:31:00;11.10;99.90
6865;DHT22;3471;49.678;8.388;2023-04-25T07:33:26;11.10;99.90
6865;DHT22;3471;49.678;8.388;2023-04-25T07:35:52;11.20;99.90
6865;DHT22;3471;49.678;8.388;2023-04-25T07:38:18;11.30;99.90
6865;DHT22;3471;49.678;8.388;2023-04-25T07:40:44;11.40;99.90
6865;DHT22;3471;49.678;8.388;2023-04-25T07:43:09;11.50;99.90
6865;DHT22;3471;49.678;8.388;2023-04-25T07:45:37;11.60;99.90
6865;DHT22;3471;49.678;8.388;2023-04-25T07:48:03;11.80;99.90
6865;DHT22;3471;49.678;8.388;2023-04-25T07:50:28;11.90;99.90
6865;DHT22;3471;49.678;8.388;2023-04-25T07:52:54;11.90;99.90
6865;DHT22;3471;49.678;8.388;2023-04-25T07:55:20;12.00;99.90
6865;DHT22;3471;49.678;8.388;2023-04-25T07:57:45;12.00;99.90
6865;DHT22;3471;49.678;8.388;2023-04-25T08:00:11;12.20;99.90
6865;DHT22;3471;49.678;8.388;2023-04-25T08:02:38;12.30;99.90
6865;DHT22;3471;49.678;8.388;2023-04-25T08:05:03;12.50;99.90
6865;DHT22;3471;49.678;8.388;2023-04-25T08:07:29;12.60;99.90
6865;DHT22;3471;49.678;8.388;2023-04-25T08:09:55;12.70;99.90
6865;DHT22;3471;49.678;8.388;2023-04-25T08:12:21;12.80;99.90
6865;DHT22;3471;49.678;8.388;2023-04-25T08:14:46;12.90;99.90
6865;DHT22;3471;49.678;8.388;2023-04-25T08:17:12;12.90;99.90
6865;DHT22;3471;49.678;8.388;2023-04-25T08:19:37;13.00;99.90
6865;DHT22;3471;49.678;8.388;2023-04-25T08:22:03;13.10;99.90
6865;DHT22;3471;49.678;8.388;2023-04-25T08:24:29;13.10;99.90
6865;DHT22;3471;49.678;8.388;2023-04-25T08:26:54;13.10;99.90
6865;DHT22;3471;49.678;8.388;2023-04-25T08:29:20;13.10;99.90
6865;DHT22;3471;49.678;8.388;2023-04-25T08:31:46;13.20;99.90
6865;DHT22;3471;49.678;8.388;2023-04-25T08:34:11;13.20;99.90
6865;DHT22;3471;49.678;8.388;2023-04-25T08:36:37;13.20;99.90
6865;DHT22;3471;49.678;8.388;2023-04-25T08:39:03;13.20;99.90
6865;DHT22;3471;49.678;8.388;2023-04-25T08:41:28;13.10;99.90
6865;DHT22;3471;49.678;8.388;2023-04-25T08:43:56;13.00;99.90
6865;DHT22;3471;49.678;8.388;2023-04-25T08:46:23;12.90;99.90
6865;DHT22;3471;49.678;8.388;2023-04-25T08:48:49;12.80;99.90
6865;DHT22;3471;49.678;8.388;2023-04-25T08:51:22;12.80;99.90
6865;DHT22;3471;49.678;8.388;2023-04-25T08:53:51;12.70;99.90
6865;DHT22;3471;49.678;8.388;2023-04-25T08:56:17;12.70;99.90
6865;DHT22;3471;49.678;8.388;2023-04-25T08:58:47;12.70;99.90
6865;DHT22;3471;49.678;8.388;2023-04-25T09:01:13;12.80;99.90
6865;DHT22;3471;49.678;8.388;2023-04-25T09:03:39;12.80;99.90
6865;DHT22;3471;49.678;8.388;2023-04-25T09:06:05;13.00;99.90
6865;DHT22;3471;49.678;8.388;2023-04-25T09:08:30;13.10;99.90
6865;DHT22;3471;49.678;8.388;2023-04-25T09:10:56;13.10;99.90
6865;DHT22;3471;49.678;8.388;2023-04-25T09:13:27;13.30;99.90
6865;DHT22;3471;49.678;8.388;2023-04-25T09:15:55;13.50;99.90
6865;DHT22;3471;49.678;8.388;2023-04-25T09:18:31;13.80;99.90
6865;DHT22;3471;49.678;8.388;2023-04-25T09:21:04;14.10;99.90
6865;DHT22;3471;49.678;8.388;2023-04-25T09:23:30;14.40;99.90
6865;DHT22;3471;49.678;8.388;2023-04-25T09:26:03;14.70;99.90
6865;DHT22;3471;49.678;8.388;2023-04-25T09:28:31;15.00;99.90
6865;DHT22;3471;49.678;8.388;2023-04-25T09:30:57;15.30;99.90
6865;DHT22;3471;49.678;8.388;2023-04-25T09:33:31;15.30;99.90
6865;DHT22;3471;49.678;8.388;2023-04-25T09:36:08;15.20;99.90
6865;DHT22;3471;49.678;8.388;2023-04-25T09:38:41;15.00;99.90
6865;DHT22;3471;49.678;8.388;2023-04-25T09:41:08;14.90;99.90
6865;DHT22;3471;49.678;8.388;2023-04-25T09:43:35;14.70;99.90
6865;DHT22;3471;49.678;8.388;2023-04-25T09:46:00;14.50;99.90
6865;DHT22;3471;49.678;8.388;2023-04-25T09:48:28;14.40;99.90
6865;DHT22;3471;49.678;8.388;2023-04-25T09:51:09;14.40;99.90
6865;DHT22;3471;49.678;8.388;2023-04-25T09:53:42;14.40;99.90
6865;DHT22;3471;49.678;8.388;2023-04-25T09:56:10;14.40;99.90
6865;DHT22;3471;49.678;8.388;2023-04-25T09:58:38;14.50;99.90
6865;DHT22;3471;49.678;8.388;2023-04-25T10:01:07;14.70;99.90
6865;DHT22;3471;49.678;8.388;2023-04-25T10:03:34;15.10;99.90
6865;DHT22;3471;49.678;8.388;2023-04-25T10:06:02;15.40;99.90
6865;DHT22;3471;49.678;8.388;2023-04-25T10:08:34;15.60;99.90
6865;DHT22;3471;49.678;8.388;2023-04-25T10:11:01;15.70;99.90
6865;DHT22;3471;49.678;8.388;2023-04-25T10:13:29;15.70;99.90
6865;DHT22;3471;49.678;8.388;2023-04-25T10:15:55;15.50;99.90
6865;DHT22;3471;49.678;8.388;2023-04-25T10:18:24;15.30;99.90
6865;DHT22;3471;49.678;8.388;2023-04-25T10:20:50;15.10;99.90
6865;DHT22;3471;49.678;8.388;2023-04-25T10:23:16;14.90;99.90
6865;DHT22;3471;49.678;8.388;2023-04-25T10:25:42;14.70;99.90
6865;DHT22;3471;49.678;8.388;2023-04-25T10:28:08;14.40;99.90
6865;DHT22;3471;49.678;8.388;2023-04-25T10:30:34;14.20;99.90
6865;DHT22;3471;49.678;8.388;2023-04-25T10:33:00;14.10;99.90
6865;DHT22;3471;49.678;8.388;2023-04-25T10:35:28;13.90;99.90
6865;DHT22;3471;49.678;8.388;2023-04-25T10:38:10;13.70;99.90
6865;DHT22;3471;49.678;8.388;2023-04-25T10:40:36;13.60;99.90
6865;DHT22;3471;49.678;8.388;2023-04-25T10:45:53;13.20;99.90
6865;DHT22;3471;49.678;8.388;2023-04-25T10:48:29;13.10;99.90
6865;DHT22;3471;49.678;8.388;2023-04-25T10:51:08;13.00;99.90
6865;DHT22;3471;49.678;8.388;2023-04-25T10:53:34;12.90;99.90
6865;DHT22;3471;49.678;8.388;2023-04-25T10:56:00;12.90;99.90
6865;DHT22;3471;49.678;8.388;2023-04-25T10:58:26;12.80;99.90
6865;DHT22;3471;49.678;8.388;2023-04-25T11:00:52;12.90;99.90
6865;DHT22;3471;49.678;8.388;2023-04-25T11:03:21;13.00;99.90
6865;DHT22;3471;49.678;8.388;2023-04-25T11:05:48;13.20;99.90
6865;DHT22;3471;49.678;8.388;2023-04-25T11:08:26;13.50;99.90
6865;DHT22;3471;49.678;8.388;2023-04-25T11:10:56;13.90;99.90
6865;DHT22;3471;49.678;8.388;2023-04-25T11:13:22;14.20;99.90
6865;DHT22;3471;49.678;8.388;2023-04-25T11:15:51;14.50;99.90
6865;DHT22;3471;49.678;8.388;2023-04-25T11:18:17;14.80;99.90
6865;DHT22;3471;49.678;8.388;2023-04-25T11:20:43;15.00;99.90
6865;DHT22;3471;49.678;8.388;2023-04-25T11:23:09;15.00;99.90
6865;DHT22;3471;49.678;8.388;2023-04-25T11:25:36;15.10;99.90
6865;DHT22;3471;49.678;8.388;2023-04-25T11:28:02;15.30;99.90
6865;DHT22;3471;49.678;8.388;2023-04-25T11:30:28;15.50;99.90
6865;DHT22;3471;49.678;8.388;2023-04-25T11:32:56;15.70;99.90
6865;DHT22;3471;49.678;8.388;2023-04-25T11:35:22;15.80;99.90
6865;DHT22;3471;49.678;8.388;2023-04-25T11:37:48;15.80;99.90
6865;DHT22;3471;49.678;8.388;2023-04-25T11:40:15;15.90;99.90
6865;DHT22;3471;49.678;8.388;2023-04-25T11:42:45;16.00;99.90
6865;DHT22;3471;49.678;8.388;2023-04-25T11:45:11;16.00;99.90
6865;DHT22;3471;49.678;8.388;2023-04-25T11:47:37;16.10;99.90
6865;DHT22;3471;49.678;8.388;2023-04-25T11:50:05;16.20;99.90
6865;DHT22;3471;49.678;8.388;2023-04-25T11:52:41;16.40;99.90
6865;DHT22;3471;49.678;8.388;2023-04-25T11:57:34;16.60;99.90
6865;DHT22;3471;49.678;8.388;2023-04-25T12:00:20;16.40;99.90
6865;DHT22;3471;49.678;8.388;2023-04-25T12:02:50;16.20;99.90
6865;DHT22;3471;49.678;8.388;2023-04-25T12:05:16;15.90;99.90
6865;DHT22;3471;49.678;8.388;2023-04-25T12:07:42;15.70;99.90
6865;DHT22;3471;49.678;8.388;2023-04-25T12:10:12;15.50;99.90
6865;DHT22;3471;49.678;8.388;2023-04-25T12:12:41;15.30;99.90
6865;DHT22;3471;49.678;8.388;2023-04-25T12:15:14;15.20;99.90
6865;DHT22;3471;49.678;8.388;2023-04-25T12:17:49;15.10;99.90
6865;DHT22;3471;49.678;8.388;2023-04-25T12:20:17;15.10;99.90
6865;DHT22;3471;49.678;8.388;2023-04-25T12:22:45;15.10;99.90
6865;DHT22;3471;49.678;8.388;2023-04-25T12:31:03;15.10;99.90
6865;DHT22;3471;49.678;8.388;2023-04-25T12:33:31;15.20;99.90
6865;DHT22;3471;49.678;8.388;2023-04-25T12:35:57;15.10;99.90
6865;DHT22;3471;49.678;8.388;2023-04-25T12:38:25;15.10;99.90
6865;DHT22;3471;49.678;8.388;2023-04-25T12:40:51;15.10;99.90
6865;DHT22;3471;49.678;8.388;2023-04-25T12:43:17;15.00;99.90
6865;DHT22;3471;49.678;8.388;2023-04-25T12:45:44;14.90;99.90
6865;DHT22;3471;49.678;8.388;2023-04-25T12:48:09;14.80;99.90
6865;DHT22;3471;49.678;8.388;2023-04-25T12:50:35;14.70;99.90
6865;DHT22;3471;49.678;8.388;2023-04-25T12:53:00;14.60;99.90
6865;DHT22;3471;49.678;8.388;2023-04-25T12:55:26;14.40;99.90
6865;DHT22;3471;49.678;8.388;2023-04-25T12:57:52;14.40;99.90
6865;DHT22;3471;49.678;8.388;2023-04-25T13:00:17;14.30;99.90
6865;DHT22;3471;49.678;8.388;2023-04-25T13:02:45;14.30;99.90
6865;DHT22;3471;49.678;8.388;2023-04-25T13:05:12;14.50;99.90
6865;DHT22;3471;49.678;8.388;2023-04-25T13:07:38;14.90;99.90
6865;DHT22;3471;49.678;8.388;2023-04-25T13:10:04;15.20;99.90
6865;DHT22;3471;49.678;8.388;2023-04-25T13:12:31;15.40;99.90
6865;DHT22;3471;49.678;8.388;2023-04-25T13:14:57;15.60;99.90
6865;DHT22;3471;49.678;8.388;2023-04-25T13:17:22;15.80;99.90
6865;DHT22;3471;49.678;8.388;2023-04-25T13:19:48;16.00;99.90
6865;DHT22;3471;49.678;8.388;2023-04-25T13:22:13;16.20;99.90
6865;DHT22;3471;49.678;8.388;2023-04-25T13:24:40;16.30;99.90
6865;DHT22;3471;49.678;8.388;2023-04-25T13:27:06;16.50;99.90
6865;DHT22;3471;49.678;8.388;2023-04-25T13:29:31;16.80;99.90
6865;DHT22;3471;49.678;8.388;2023-04-25T13:32:00;17.00;99.90
6865;DHT22;3471;49.678;8.388;2023-04-25T13:34:26;17.10;99.90
6865;DHT22;3471;49.678;8.388;2023-04-25T13:36:51;17.10;99.90
6865;DHT22;3471;49.678;8.388;2023-04-25T13:39:17;17.00;99.90
6865;DHT22;3471;49.678;8.388;2023-04-25T13:41:43;16.80;99.90
6865;DHT22;3471;49.678;8.388;2023-04-25T13:44:08;16.50;99.90
6865;DHT22;3471;49.678;8.388;2023-04-25T13:46:34;16.00;99.90
6865;DHT22;3471;49.678;8.388;2023-04-25T13:48:59;15.60;99.90
6865;DHT22;3471;49.678;8.388;2023-04-25T13:51:26;15.30;99.90
6865;DHT22;3471;49.678;8.388;2023-04-25T13:53:52;15.00;99.90
6865;DHT22;3471;49.678;8.388;2023-04-25T13:56:18;14.80;99.90
6865;DHT22;3471;49.678;8.388;2023-04-25T13:58:45;14.70;99.90
6865;DHT22;3471;49.678;8.388;2023-04-25T14:01:10;14.70;99.90
6865;DHT22;3471;49.678;8.388;2023-04-25T14:03:36;14.60;99.90
6865;DHT22;3471;49.678;8.388;2023-04-25T14:06:01;14.60;99.90
6865;DHT22;3471;49.678;8.388;2023-04-25T14:08:27;14.60;99.90
6865;DHT22;3471;49.678;8.388;2023-04-25T14:10:54;14.60;99.90
6865;DHT22;3471;49.678;8.388;2023-04-25T14:13:19;14.60;99.90
6865;DHT22;3471;49.678;8.388;2023-04-25T14:15:45;14.50;99.90
6865;DHT22;3471;49.678;8.388;2023-04-25T14:18:11;14.40;99.90
6865;DHT22;3471;49.678;8.388;2023-04-25T14:20:36;14.40;99.90
6865;DHT22;3471;49.678;8.388;2023-04-25T14:23:02;14.30;99.90
6865;DHT22;3471;49.678;8.388;2023-04-25T14:25:29;14.30;99.90
6865;DHT22;3471;49.678;8.388;2023-04-25T14:27:55;14.30;99.90
6865;DHT22;3471;49.678;8.388;2023-04-25T14:30:21;14.40;99.90
6865;DHT22;3471;49.678;8.388;2023-04-25T14:32:48;14.50;99.90
6865;DHT22;3471;49.678;8.388;2023-04-25T14:35:14;14.70;99.90
6865;DHT22;3471;49.678;8.388;2023-04-25T14:37:40;14.90;99.90
6865;DHT22;3471;49.678;8.388;2023-04-25T14:40:07;15.00;99.90
6865;DHT22;3471;49.678;8.388;2023-04-25T14:42:37;15.10;99.90
6865;DHT22;3471;49.678;8.388;2023-04-25T14:45:04;15.10;99.90
6865;DHT22;3471;49.678;8.388;2023-04-25T14:47:29;15.30;99.90
6865;DHT22;3471;49.678;8.388;2023-04-25T14:49:56;15.60;99.90
6865;DHT22;3471;49.678;8.388;2023-04-25T14:52:21;15.80;99.90
6865;DHT22;3471;49.678;8.388;2023-04-25T14:54:47;15.80;99.50
6865;DHT22;3471;49.678;8.388;2023-04-25T14:57:13;15.70;99.90
6865;DHT22;3471;49.678;8.388;2023-04-25T14:59:38;15.60;99.90
6865;DHT22;3471;49.678;8.388;2023-04-25T15:02:05;15.50;99.90
6865;DHT22;3471;49.678;8.388;2023-04-25T15:04:31;15.50;99.90
6865;DHT22;3471;49.678;8.388;2023-04-25T15:06:57;15.60;99.90
6865;DHT22;3471;49.678;8.388;2023-04-25T15:09:22;15.80;99.90
6865;DHT22;3471;49.678;8.388;2023-04-25T15:11:49;16.00;99.90
6865;DHT22;3471;49.678;8.388;2023-04-25T15:14:16;16.60;99.90
6865;DHT22;3471;49.678;8.388;2023-04-25T15:16:42;17.20;99.90
6865;DHT22;3471;49.678;8.388;2023-04-25T15:19:08;17.70;99.40
6865;DHT22;3471;49.678;8.388;2023-04-25T15:21:33;18.10;98.70
6865;DHT22;3471;49.678;8.388;2023-04-25T15:23:59;18.40;96.70
6865;DHT22;3471;49.678;8.388;2023-04-25T15:26:26;18.50;96.30
6865;DHT22;3471;49.678;8.388;2023-04-25T15:28:51;18.40;98.40
6865;DHT22;3471;49.678;8.388;2023-04-25T15:31:18;18.30;97.10
6865;DHT22;3471;49.678;8.388;2023-04-25T15:33:43;18.00;97.00
6865;DHT22;3471;49.678;8.388;2023-04-25T15:36:09;17.60;97.20
6865;DHT22;3471;49.678;8.388;2023-04-25T15:38:36;17.20;95.70
6865;DHT22;3471;49.678;8.388;2023-04-25T15:41:01;16.80;95.00
6865;DHT22;3471;49.678;8.388;2023-04-25T15:43:27;16.30;95.10
6865;DHT22;3471;49.678;8.388;2023-04-25T15:45:53;16.00;95.70
6865;DHT22;3471;49.678;8.388;2023-04-25T15:48:20;15.70;96.60
6865;DHT22;3471;49.678;8.388;2023-04-25T15:50:45;15.50;97.20
6865;DHT22;3471;49.678;8.388;2023-04-25T15:53:11;15.30;96.20
6865;DHT22;3471;49.678;8.388;2023-04-25T15:55:38;15.10;96.30
6865;DHT22;3471;49.678;8.388;2023-04-25T15:58:04;14.90;97.40
6865;DHT22;3471;49.678;8.388;2023-04-25T16:00:29;14.80;97.10
6865;DHT22;3471;49.678;8.388;2023-04-25T16:02:55;14.60;97.20
6865;DHT22;3471;49.678;8.388;2023-04-25T16:05:21;14.50;97.50
6865;DHT22;3471;49.678;8.388;2023-04-25T16:07:47;14.40;97.70